sensor_id;sensor_type;location;lat;lon;timestamp;P1;durP1;ratioP1;P2;durP2;ratioP2
33074;SDS011;19433;51.292;6.868;2023-07-29T00:01:18;1.70;;;1.60;;
33074;SDS011;19433;51.292;6.868;2023-07-29T00:03:43;1.90;;;1.80;;
33074;SDS011;19433;51.292;6.868;2023-07-29T00:06:09;2.07;;;1.70;;
33074;SDS011;19433;51.292;6.868;2023-07-29T00:08:34;10.23;;;2.27;;
33074;SDS011;19433;51.292;6.868;2023-07-29T00:10:59;1.67;;;1.57;;
33074;SDS011;19433;51.292;6.868;2023-07-29T00:13:25;2.30;;;2.03;;
33074;SDS011;19433;51.292;6.868;2023-07-29T00:15:53;2.20;;;2.00;;
33074;SDS011;19433;51.292;6.868;2023-07-29T00:18:19;2.47;;;2.37;;
33074;SDS011;19433;51.292;6.868;2023-07-29T00:20:44;2.07;;;1.97;;
33074;SDS011;19433;51.292;6.868;2023-07-29T00:23:10;3.33;;;2.27;;
33074;SDS011;19433;51.292;6.868;2023-07-29T00:25:35;2.57;;;2.37;;
33074;SDS011;19433;51.292;6.868;2023-07-29T00:28:01;3.13;;;2.20;;
33074;SDS011;19433;51.292;6.868;2023-07-29T00:30:26;2.10;;;2.00;;
33074;SDS011;19433;51.292;6.868;2023-07-29T00:32:51;2.43;;;2.27;;
33074;SDS011;19433;51.292;6.868;2023-07-29T00:35:17;2.73;;;2.53;;
33074;SDS011;19433;51.292;6.868;2023-07-29T00:37:42;2.20;;;2.10;;
33074;SDS011;19433;51.292;6.868;2023-07-29T00:40:25;2.20;;;2.07;;
33074;SDS011;19433;51.292;6.868;2023-07-29T00:42:53;4.93;;;3.07;;
33074;SDS011;19433;51.292;6.868;2023-07-29T00:45:18;1.90;;;1.80;;
33074;SDS011;19433;51.292;6.868;2023-07-29T00:47:43;2.63;;;2.43;;
33074;SDS011;19433;51.292;6.868;2023-07-29T00:50:13;2.10;;;2.00;;
33074;SDS011;19433;51.292;6.868;2023-07-29T00:52:39;2.20;;;2.10;;
33074;SDS011;19433;51.292;6.868;2023-07-29T00:55:05;2.40;;;2.20;;
33074;SDS011;19433;51.292;6.868;2023-07-29T00:57:32;2.70;;;2.27;;
33074;SDS011;19433;51.292;6.868;2023-07-29T00:59:58;2.20;;;2.10;;
33074;SDS011;19433;51.292;6.868;2023-07-29T01:02:24;3.70;;;2.67;;
33074;SDS011;19433;51.292;6.868;2023-07-29T01:04:52;2.90;;;2.70;;
33074;SDS011;19433;51.292;6.868;2023-07-29T01:07:31;2.53;;;2.33;;
33074;SDS011;19433;51.292;6.868;2023-07-29T01:10:10;3.93;;;2.80;;
33074;SDS011;19433;51.292;6.868;2023-07-29T01:12:49;1.87;;;1.77;;
33074;SDS011;19433;51.292;6.868;2023-07-29T01:15:23;1.93;;;1.83;;
33074;SDS011;19433;51.292;6.868;2023-07-29T01:18:02;2.20;;;2.10;;
33074;SDS011;19433;51.292;6.868;2023-07-29T01:20:32;2.87;;;2.67;;
33074;SDS011;19433;51.292;6.868;2023-07-29T01:23:01;2.83;;;2.60;;
33074;SDS011;19433;51.292;6.868;2023-07-29T01:25:26;3.13;;;2.30;;
33074;SDS011;19433;51.292;6.868;2023-07-29T01:27:51;2.50;;;2.40;;
33074;SDS011;19433;51.292;6.868;2023-07-29T01:30:17;2.80;;;2.60;;
33074;SDS011;19433;51.292;6.868;2023-07-29T01:35:24;2.73;;;2.53;;
33074;SDS011;19433;51.292;6.868;2023-07-29T01:38:02;5.80;;;2.37;;
33074;SDS011;19433;51.292;6.868;2023-07-29T01:40:30;2.90;;;2.50;;
33074;SDS011;19433;51.292;6.868;2023-07-29T01:42:55;5.50;;;2.83;;
33074;SDS011;19433;51.292;6.868;2023-07-29T01:45:24;5.00;;;2.60;;
33074;SDS011;19433;51.292;6.868;2023-07-29T01:47:52;2.20;;;2.10;;
33074;SDS011;19433;51.292;6.868;2023-07-29T01:50:18;2.73;;;2.53;;
33074;SDS011;19433;51.292;6.868;2023-07-29T01:52:43;2.93;;;2.73;;
33074;SDS011;19433;51.292;6.868;2023-07-29T01:55:08;2.67;;;2.47;;
33074;SDS011;19433;51.292;6.868;2023-07-29T01:57:34;2.60;;;2.50;;
33074;SDS011;19433;51.292;6.868;2023-07-29T01:59:59;4.53;;;2.27;;
33074;SDS011;19433;51.292;6.868;2023-07-29T02:02:24;2.00;;;1.90;;
33074;SDS011;19433;51.292;6.868;2023-07-29T02:04:50;2.47;;;2.37;;
33074;SDS011;19433;51.292;6.868;2023-07-29T02:07:17;2.70;;;2.50;;
33074;SDS011;19433;51.292;6.868;2023-07-29T02:09:43;2.70;;;2.50;;
33074;SDS011;19433;51.292;6.868;2023-07-29T02:12:08;2.50;;;2.40;;
33074;SDS011;19433;51.292;6.868;2023-07-29T02:14:33;2.20;;;2.10;;
33074;SDS011;19433;51.292;6.868;2023-07-29T02:16:59;2.30;;;2.20;;
33074;SDS011;19433;51.292;6.868;2023-07-29T02:19:24;3.77;;;2.77;;
33074;SDS011;19433;51.292;6.868;2023-07-29T02:21:49;2.90;;;2.70;;
33074;SDS011;19433;51.292;6.868;2023-07-29T02:24:15;2.30;;;2.20;;
33074;SDS011;19433;51.292;6.868;2023-07-29T02:26:40;3.80;;;2.73;;
33074;SDS011;19433;51.292;6.868;2023-07-29T02:29:06;2.50;;;2.30;;
33074;SDS011;19433;51.292;6.868;2023-07-29T02:31:31;4.40;;;2.67;;
33074;SDS011;19433;51.292;6.868;2023-07-29T02:33:57;2.67;;;2.47;;
33074;SDS011;19433;51.292;6.868;2023-07-29T02:36:22;3.03;;;2.83;;
33074;SDS011;19433;51.292;6.868;2023-07-29T02:38:47;2.97;;;2.77;;
33074;SDS011;19433;51.292;6.868;2023-07-29T02:41:12;2.13;;;2.03;;
33074;SDS011;19433;51.292;6.868;2023-07-29T02:43:38;5.30;;;2.50;;
33074;SDS011;19433;51.292;6.868;2023-07-29T02:46:05;2.57;;;2.30;;
33074;SDS011;19433;51.292;6.868;2023-07-29T02:48:30;2.70;;;2.50;;
33074;SDS011;19433;51.292;6.868;2023-07-29T02:50:55;4.90;;;2.83;;
33074;SDS011;19433;51.292;6.868;2023-07-29T02:53:21;3.20;;;2.70;;
33074;SDS011;19433;51.292;6.868;2023-07-29T02:55:47;3.00;;;2.80;;
33074;SDS011;19433;51.292;6.868;2023-07-29T02:58:13;2.57;;;2.37;;
33074;SDS011;19433;51.292;6.868;2023-07-29T03:00:38;2.20;;;2.00;;
33074;SDS011;19433;51.292;6.868;2023-07-29T03:03:06;2.60;;;2.40;;
33074;SDS011;19433;51.292;6.868;2023-07-29T03:05:32;2.50;;;2.33;;
33074;SDS011;19433;51.292;6.868;2023-07-29T03:07:57;2.63;;;2.43;;
33074;SDS011;19433;51.292;6.868;2023-07-29T03:10:22;2.63;;;2.43;;
33074;SDS011;19433;51.292;6.868;2023-07-29T03:12:48;2.53;;;2.33;;
33074;SDS011;19433;51.292;6.868;2023-07-29T03:15:13;2.67;;;2.53;;
33074;SDS011;19433;51.292;6.868;2023-07-29T03:17:39;2.90;;;2.70;;
33074;SDS011;19433;51.292;6.868;2023-07-29T03:20:04;3.03;;;2.83;;
33074;SDS011;19433;51.292;6.868;2023-07-29T03:22:30;3.30;;;3.10;;
33074;SDS011;19433;51.292;6.868;2023-07-29T03:24:55;2.53;;;2.43;;
33074;SDS011;19433;51.292;6.868;2023-07-29T03:27:20;3.10;;;2.90;;
33074;SDS011;19433;51.292;6.868;2023-07-29T03:29:46;5.40;;;3.20;;
33074;SDS011;19433;51.292;6.868;2023-07-29T03:32:11;3.40;;;3.10;;
33074;SDS011;19433;51.292;6.868;2023-07-29T03:34:36;3.60;;;2.50;;
33074;SDS011;19433;51.292;6.868;2023-07-29T03:37:02;3.00;;;2.80;;
33074;SDS011;19433;51.292;6.868;2023-07-29T03:39:27;3.13;;;2.90;;
33074;SDS011;19433;51.292;6.868;2023-07-29T03:41:52;2.80;;;2.57;;
33074;SDS011;19433;51.292;6.868;2023-07-29T03:44:18;3.07;;;2.87;;
33074;SDS011;19433;51.292;6.868;2023-07-29T03:46:43;2.80;;;2.60;;
33074;SDS011;19433;51.292;6.868;2023-07-29T03:49:09;4.67;;;2.33;;
33074;SDS011;19433;51.292;6.868;2023-07-29T03:51:34;2.83;;;2.53;;
33074;SDS011;19433;51.292;6.868;2023-07-29T03:54:00;3.17;;;2.97;;
33074;SDS011;19433;51.292;6.868;2023-07-29T03:56:25;2.80;;;2.60;;
33074;SDS011;19433;51.292;6.868;2023-07-29T03:58:51;2.80;;;2.70;;
33074;SDS011;19433;51.292;6.868;2023-07-29T04:01:17;4.93;;;3.00;;
33074;SDS011;19433;51.292;6.868;2023-07-29T04:03:42;3.10;;;2.90;;
33074;SDS011;19433;51.292;6.868;2023-07-29T04:06:08;3.20;;;2.97;;
33074;SDS011;19433;51.292;6.868;2023-07-29T04:08:33;2.60;;;2.47;;
33074;SDS011;19433;51.292;6.868;2023-07-29T04:10:58;3.00;;;2.80;;
33074;SDS011;19433;51.292;6.868;2023-07-29T04:13:24;3.40;;;3.10;;
33074;SDS011;19433;51.292;6.868;2023-07-29T04:15:49;2.60;;;2.50;;
33074;SDS011;19433;51.292;6.868;2023-07-29T04:18:14;3.87;;;3.57;;
33074;SDS011;19433;51.292;6.868;2023-07-29T04:20:39;3.17;;;2.90;;
33074;SDS011;19433;51.292;6.868;2023-07-29T04:23:05;3.40;;;2.93;;
33074;SDS011;19433;51.292;6.868;2023-07-29T04:25:30;3.33;;;3.07;;
33074;SDS011;19433;51.292;6.868;2023-07-29T04:27:55;3.40;;;3.20;;
33074;SDS011;19433;51.292;6.868;2023-07-29T04:30:22;3.80;;;3.50;;
33074;SDS011;19433;51.292;6.868;2023-07-29T04:32:48;3.87;;;3.57;;
33074;SDS011;19433;51.292;6.868;2023-07-29T04:35:13;3.00;;;2.80;;
33074;SDS011;19433;51.292;6.868;2023-07-29T04:37:39;3.60;;;3.30;;
33074;SDS011;19433;51.292;6.868;2023-07-29T04:40:05;3.47;;;3.17;;
33074;SDS011;19433;51.292;6.868;2023-07-29T04:42:31;4.93;;;3.57;;
33074;SDS011;19433;51.292;6.868;2023-07-29T04:44:56;3.20;;;3.00;;
33074;SDS011;19433;51.292;6.868;2023-07-29T04:47:21;3.20;;;3.00;;
33074;SDS011;19433;51.292;6.868;2023-07-29T04:49:46;3.07;;;2.87;;
33074;SDS011;19433;51.292;6.868;2023-07-29T04:52:12;3.63;;;3.33;;
33074;SDS011;19433;51.292;6.868;2023-07-29T04:54:37;3.80;;;3.50;;
33074;SDS011;19433;51.292;6.868;2023-07-29T04:57:03;5.17;;;3.80;;
33074;SDS011;19433;51.292;6.868;2023-07-29T04:59:28;3.97;;;3.67;;
33074;SDS011;19433;51.292;6.868;2023-07-29T05:01:53;8.70;;;3.60;;
33074;SDS011;19433;51.292;6.868;2023-07-29T05:04:19;3.90;;;3.60;;
33074;SDS011;19433;51.292;6.868;2023-07-29T05:06:44;4.30;;;4.00;;
33074;SDS011;19433;51.292;6.868;2023-07-29T05:09:15;4.50;;;4.10;;
33074;SDS011;19433;51.292;6.868;2023-07-29T05:11:42;8.40;;;4.10;;
33074;SDS011;19433;51.292;6.868;2023-07-29T05:14:10;3.67;;;3.47;;
33074;SDS011;19433;51.292;6.868;2023-07-29T05:16:36;3.00;;;2.80;;
33074;SDS011;19433;51.292;6.868;2023-07-29T05:19:01;4.23;;;3.60;;
33074;SDS011;19433;51.292;6.868;2023-07-29T05:21:27;4.20;;;3.40;;
33074;SDS011;19433;51.292;6.868;2023-07-29T05:23:52;3.90;;;3.60;;
33074;SDS011;19433;51.292;6.868;2023-07-29T05:26:17;4.03;;;3.73;;
33074;SDS011;19433;51.292;6.868;2023-07-29T05:28:43;3.23;;;3.03;;
33074;SDS011;19433;51.292;6.868;2023-07-29T05:31:08;3.33;;;3.07;;
33074;SDS011;19433;51.292;6.868;2023-07-29T05:33:34;3.53;;;3.33;;
33074;SDS011;19433;51.292;6.868;2023-07-29T05:36:01;4.37;;;3.77;;
33074;SDS011;19433;51.292;6.868;2023-07-29T05:38:26;4.47;;;4.17;;
33074;SDS011;19433;51.292;6.868;2023-07-29T05:40:51;4.67;;;4.17;;
33074;SDS011;19433;51.292;6.868;2023-07-29T05:43:17;4.27;;;3.97;;
33074;SDS011;19433;51.292;6.868;2023-07-29T05:45:42;4.43;;;3.87;;
33074;SDS011;19433;51.292;6.868;2023-07-29T05:48:07;4.43;;;3.90;;
33074;SDS011;19433;51.292;6.868;2023-07-29T05:50:32;4.73;;;3.80;;
33074;SDS011;19433;51.292;6.868;2023-07-29T05:52:58;3.50;;;3.20;;
33074;SDS011;19433;51.292;6.868;2023-07-29T05:55:23;5.10;;;4.70;;
33074;SDS011;19433;51.292;6.868;2023-07-29T05:57:48;5.00;;;4.50;;
33074;SDS011;19433;51.292;6.868;2023-07-29T06:00:13;5.17;;;4.63;;
33074;SDS011;19433;51.292;6.868;2023-07-29T06:02:39;4.33;;;4.03;;
33074;SDS011;19433;51.292;6.868;2023-07-29T06:05:06;5.03;;;4.63;;
33074;SDS011;19433;51.292;6.868;2023-07-29T06:07:32;4.20;;;3.90;;
33074;SDS011;19433;51.292;6.868;2023-07-29T06:09:58;4.63;;;4.20;;
33074;SDS011;19433;51.292;6.868;2023-07-29T06:12:24;4.40;;;4.00;;
33074;SDS011;19433;51.292;6.868;2023-07-29T06:14:49;7.53;;;4.30;;
33074;SDS011;19433;51.292;6.868;2023-07-29T06:17:14;4.57;;;4.10;;
33074;SDS011;19433;51.292;6.868;2023-07-29T06:19:39;3.77;;;3.47;;
33074;SDS011;19433;51.292;6.868;2023-07-29T06:22:05;4.80;;;4.20;;
33074;SDS011;19433;51.292;6.868;2023-07-29T06:24:30;3.10;;;2.90;;
33074;SDS011;19433;51.292;6.868;2023-07-29T06:26:56;3.90;;;3.60;;
33074;SDS011;19433;51.292;6.868;2023-07-29T06:29:21;3.00;;;2.70;;
33074;SDS011;19433;51.292;6.868;2023-07-29T06:31:47;3.13;;;2.93;;
33074;SDS011;19433;51.292;6.868;2023-07-29T06:34:12;3.17;;;2.70;;
33074;SDS011;19433;51.292;6.868;2023-07-29T06:36:37;3.23;;;2.93;;
33074;SDS011;19433;51.292;6.868;2023-07-29T06:39:02;3.27;;;3.07;;
33074;SDS011;19433;51.292;6.868;2023-07-29T06:41:28;3.27;;;3.07;;
33074;SDS011;19433;51.292;6.868;2023-07-29T06:43:53;2.40;;;2.20;;
33074;SDS011;19433;51.292;6.868;2023-07-29T06:46:18;2.37;;;2.17;;
33074;SDS011;19433;51.292;6.868;2023-07-29T06:48:44;2.57;;;2.37;;
33074;SDS011;19433;51.292;6.868;2023-07-29T06:51:09;2.07;;;1.93;;
33074;SDS011;19433;51.292;6.868;2023-07-29T06:53:34;1.93;;;1.57;;
33074;SDS011;19433;51.292;6.868;2023-07-29T06:55:59;1.87;;;1.77;;
33074;SDS011;19433;51.292;6.868;2023-07-29T06:58:25;4.83;;;1.90;;
33074;SDS011;19433;51.292;6.868;2023-07-29T07:00:50;2.00;;;1.63;;
33074;SDS011;19433;51.292;6.868;2023-07-29T07:03:15;1.80;;;1.70;;
33074;SDS011;19433;51.292;6.868;2023-07-29T07:05:41;2.00;;;1.90;;
33074;SDS011;19433;51.292;6.868;2023-07-29T07:08:06;1.17;;;1.10;;
33074;SDS011;19433;51.292;6.868;2023-07-29T07:10:31;1.60;;;1.50;;
33074;SDS011;19433;51.292;6.868;2023-07-29T07:12:58;2.70;;;1.77;;
33074;SDS011;19433;51.292;6.868;2023-07-29T07:15:24;1.30;;;1.20;;
33074;SDS011;19433;51.292;6.868;2023-07-29T07:17:50;1.73;;;1.10;;
33074;SDS011;19433;51.292;6.868;2023-07-29T07:20:16;1.17;;;1.17;;
33074;SDS011;19433;51.292;6.868;2023-07-29T07:22:41;1.60;;;1.43;;
33074;SDS011;19433;51.292;6.868;2023-07-29T07:25:07;1.30;;;1.20;;
33074;SDS011;19433;51.292;6.868;2023-07-29T07:27:32;1.57;;;1.13;;
33074;SDS011;19433;51.292;6.868;2023-07-29T07:29:58;1.20;;;1.10;;
33074;SDS011;19433;51.292;6.868;2023-07-29T07:32:23;2.23;;;1.30;;
33074;SDS011;19433;51.292;6.868;2023-07-29T07:34:48;1.23;;;1.20;;
33074;SDS011;19433;51.292;6.868;2023-07-29T07:37:13;1.57;;;1.47;;
33074;SDS011;19433;51.292;6.868;2023-07-29T07:39:39;1.17;;;1.07;;
33074;SDS011;19433;51.292;6.868;2023-07-29T07:42:04;0.97;;;0.90;;
33074;SDS011;19433;51.292;6.868;2023-07-29T07:44:30;1.10;;;1.10;;
33074;SDS011;19433;51.292;6.868;2023-07-29T07:46:55;1.10;;;1.10;;
33074;SDS011;19433;51.292;6.868;2023-07-29T07:49:21;1.07;;;1.07;;
33074;SDS011;19433;51.292;6.868;2023-07-29T07:51:47;1.20;;;1.10;;
33074;SDS011;19433;51.292;6.868;2023-07-29T07:54:12;1.30;;;1.20;;
33074;SDS011;19433;51.292;6.868;2023-07-29T07:56:38;1.67;;;1.57;;
33074;SDS011;19433;51.292;6.868;2023-07-29T07:59:03;1.40;;;1.30;;
33074;SDS011;19433;51.292;6.868;2023-07-29T08:01:33;1.30;;;1.20;;
33074;SDS011;19433;51.292;6.868;2023-07-29T08:04:02;0.97;;;0.90;;
33074;SDS011;19433;51.292;6.868;2023-07-29T08:06:27;1.30;;;1.20;;
33074;SDS011;19433;51.292;6.868;2023-07-29T08:08:53;6.93;;;1.47;;
33074;SDS011;19433;51.292;6.868;2023-07-29T08:11:18;1.20;;;1.10;;
33074;SDS011;19433;51.292;6.868;2023-07-29T08:13:43;1.63;;;0.90;;
33074;SDS011;19433;51.292;6.868;2023-07-29T08:16:09;1.20;;;1.10;;
33074;SDS011;19433;51.292;6.868;2023-07-29T08:18:34;1.00;;;0.90;;
33074;SDS011;19433;51.292;6.868;2023-07-29T08:20:59;0.83;;;0.80;;
33074;SDS011;19433;51.292;6.868;2023-07-29T08:23:29;2.00;;;0.90;;
33074;SDS011;19433;51.292;6.868;2023-07-29T08:25:56;1.03;;;0.93;;
33074;SDS011;19433;51.292;6.868;2023-07-29T08:28:26;1.10;;;0.90;;
33074;SDS011;19433;51.292;6.868;2023-07-29T08:30:59;0.90;;;0.90;;
33074;SDS011;19433;51.292;6.868;2023-07-29T08:33:25;0.80;;;0.73;;
33074;SDS011;19433;51.292;6.868;2023-07-29T08:35:51;0.90;;;0.73;;
33074;SDS011;19433;51.292;6.868;2023-07-29T08:38:16;0.70;;;0.60;;
33074;SDS011;19433;51.292;6.868;2023-07-29T08:40:42;1.00;;;0.90;;
33074;SDS011;19433;51.292;6.868;2023-07-29T08:43:14;1.50;;;0.77;;
33074;SDS011;19433;51.292;6.868;2023-07-29T08:45:41;1.07;;;1.00;;
33074;SDS011;19433;51.292;6.868;2023-07-29T08:48:09;0.93;;;0.90;;
33074;SDS011;19433;51.292;6.868;2023-07-29T08:50:36;1.47;;;0.90;;
33074;SDS011;19433;51.292;6.868;2023-07-29T08:53:05;0.90;;;0.70;;
33074;SDS011;19433;51.292;6.868;2023-07-29T08:55:30;0.83;;;0.70;;
33074;SDS011;19433;51.292;6.868;2023-07-29T08:57:56;0.60;;;0.60;;
33074;SDS011;19433;51.292;6.868;2023-07-29T09:00:23;0.67;;;0.67;;
33074;SDS011;19433;51.292;6.868;2023-07-29T09:02:48;1.27;;;0.83;;
33074;SDS011;19433;51.292;6.868;2023-07-29T09:05:14;0.80;;;0.60;;
33074;SDS011;19433;51.292;6.868;2023-07-29T09:07:39;0.60;;;0.60;;
33074;SDS011;19433;51.292;6.868;2023-07-29T09:10:08;0.60;;;0.60;;
33074;SDS011;19433;51.292;6.868;2023-07-29T09:12:35;0.80;;;0.80;;
33074;SDS011;19433;51.292;6.868;2023-07-29T09:15:00;1.00;;;0.90;;
33074;SDS011;19433;51.292;6.868;2023-07-29T09:17:26;1.10;;;1.10;;
33074;SDS011;19433;51.292;6.868;2023-07-29T09:19:51;0.67;;;0.67;;
33074;SDS011;19433;51.292;6.868;2023-07-29T09:22:17;0.70;;;0.70;;
33074;SDS011;19433;51.292;6.868;2023-07-29T09:24:44;0.70;;;0.70;;
33074;SDS011;19433;51.292;6.868;2023-07-29T09:27:23;0.90;;;0.90;;
33074;SDS011;19433;51.292;6.868;2023-07-29T09:29:52;0.83;;;0.83;;
33074;SDS011;19433;51.292;6.868;2023-07-29T09:32:21;0.80;;;0.80;;
33074;SDS011;19433;51.292;6.868;2023-07-29T09:34:48;1.27;;;0.77;;
33074;SDS011;19433;51.292;6.868;2023-07-29T09:37:32;1.23;;;1.03;;
33074;SDS011;19433;51.292;6.868;2023-07-29T09:39:57;0.90;;;0.70;;
33074;SDS011;19433;51.292;6.868;2023-07-29T09:42:22;1.47;;;0.87;;
33074;SDS011;19433;51.292;6.868;2023-07-29T09:44:49;0.70;;;0.70;;
33074;SDS011;19433;51.292;6.868;2023-07-29T09:47:21;0.93;;;0.93;;
33074;SDS011;19433;51.292;6.868;2023-07-29T09:49:48;3.43;;;1.50;;
33074;SDS011;19433;51.292;6.868;2023-07-29T09:52:15;1.10;;;1.00;;
33074;SDS011;19433;51.292;6.868;2023-07-29T09:54:44;0.90;;;0.90;;
33074;SDS011;19433;51.292;6.868;2023-07-29T09:57:11;1.27;;;1.17;;
33074;SDS011;19433;51.292;6.868;2023-07-29T09:59:38;0.80;;;0.80;;
33074;SDS011;19433;51.292;6.868;2023-07-29T10:02:03;1.17;;;1.10;;
33074;SDS011;19433;51.292;6.868;2023-07-29T10:04:29;1.80;;;1.10;;
33074;SDS011;19433;51.292;6.868;2023-07-29T10:06:56;1.47;;;1.07;;
33074;SDS011;19433;51.292;6.868;2023-07-29T10:09:22;1.23;;;0.87;;
33074;SDS011;19433;51.292;6.868;2023-07-29T10:11:48;1.20;;;1.20;;
33074;SDS011;19433;51.292;6.868;2023-07-29T10:14:15;1.43;;;0.93;;
33074;SDS011;19433;51.292;6.868;2023-07-29T10:16:42;0.97;;;0.70;;
33074;SDS011;19433;51.292;6.868;2023-07-29T10:19:10;1.30;;;1.13;;
33074;SDS011;19433;51.292;6.868;2023-07-29T10:21:38;1.00;;;1.00;;
33074;SDS011;19433;51.292;6.868;2023-07-29T10:24:04;1.53;;;1.00;;
33074;SDS011;19433;51.292;6.868;2023-07-29T10:26:34;0.80;;;0.70;;
33074;SDS011;19433;51.292;6.868;2023-07-29T10:29:02;0.77;;;0.77;;
33074;SDS011;19433;51.292;6.868;2023-07-29T10:31:29;1.00;;;1.00;;
33074;SDS011;19433;51.292;6.868;2023-07-29T10:33:56;0.80;;;0.80;;
33074;SDS011;19433;51.292;6.868;2023-07-29T10:36:22;0.90;;;0.90;;
33074;SDS011;19433;51.292;6.868;2023-07-29T10:38:47;0.97;;;0.97;;
33074;SDS011;19433;51.292;6.868;2023-07-29T10:41:13;0.83;;;0.83;;
33074;SDS011;19433;51.292;6.868;2023-07-29T10:43:38;0.90;;;0.90;;
33074;SDS011;19433;51.292;6.868;2023-07-29T10:46:17;0.80;;;0.80;;
33074;SDS011;19433;51.292;6.868;2023-07-29T10:48:44;1.20;;;1.20;;
33074;SDS011;19433;51.292;6.868;2023-07-29T10:51:27;2.50;;;1.10;;
33074;SDS011;19433;51.292;6.868;2023-07-29T10:54:03;0.90;;;0.90;;
33074;SDS011;19433;51.292;6.868;2023-07-29T10:56:35;1.03;;;1.00;;
33074;SDS011;19433;51.292;6.868;2023-07-29T11:01:36;1.23;;;0.97;;
33074;SDS011;19433;51.292;6.868;2023-07-29T11:17:45;1.63;;;0.90;;
33074;SDS011;19433;51.292;6.868;2023-07-29T11:20:21;1.23;;;1.17;;
33074;SDS011;19433;51.292;6.868;2023-07-29T11:22:52;1.17;;;0.93;;
33074;SDS011;19433;51.292;6.868;2023-07-29T11:25:18;1.00;;;0.90;;
33074;SDS011;19433;51.292;6.868;2023-07-29T11:27:44;1.70;;;0.90;;
33074;SDS011;19433;51.292;6.868;2023-07-29T11:30:11;1.30;;;0.93;;
33074;SDS011;19433;51.292;6.868;2023-07-29T11:32:38;1.00;;;1.00;;
33074;SDS011;19433;51.292;6.868;2023-07-29T11:35:05;1.97;;;1.87;;
33074;SDS011;19433;51.292;6.868;2023-07-29T11:37:32;1.10;;;1.00;;
33074;SDS011;19433;51.292;6.868;2023-07-29T11:39:58;0.87;;;0.87;;
33074;SDS011;19433;51.292;6.868;2023-07-29T11:42:24;0.70;;;0.70;;
33074;SDS011;19433;51.292;6.868;2023-07-29T11:44:51;1.13;;;1.03;;
33074;SDS011;19433;51.292;6.868;2023-07-29T11:47:16;1.10;;;1.00;;
33074;SDS011;19433;51.292;6.868;2023-07-29T11:49:42;0.90;;;0.90;;
33074;SDS011;19433;51.292;6.868;2023-07-29T11:52:07;0.80;;;0.80;;
33074;SDS011;19433;51.292;6.868;2023-07-29T11:54:37;1.03;;;1.00;;
33074;SDS011;19433;51.292;6.868;2023-07-29T11:57:04;1.00;;;0.90;;
33074;SDS011;19433;51.292;6.868;2023-07-29T11:59:31;2.03;;;0.97;;
33074;SDS011;19433;51.292;6.868;2023-07-29T12:01:58;1.37;;;1.27;;
33074;SDS011;19433;51.292;6.868;2023-07-29T12:04:25;0.83;;;0.83;;
33074;SDS011;19433;51.292;6.868;2023-07-29T12:06:51;1.43;;;1.27;;
33074;SDS011;19433;51.292;6.868;2023-07-29T12:09:16;0.80;;;0.80;;
33074;SDS011;19433;51.292;6.868;2023-07-29T12:11:42;1.80;;;1.10;;
33074;SDS011;19433;51.292;6.868;2023-07-29T12:14:07;1.10;;;1.10;;
33074;SDS011;19433;51.292;6.868;2023-07-29T12:16:39;1.93;;;1.10;;
33074;SDS011;19433;51.292;6.868;2023-07-29T12:19:08;1.37;;;1.00;;
33074;SDS011;19433;51.292;6.868;2023-07-29T12:21:33;0.93;;;0.90;;
33074;SDS011;19433;51.292;6.868;2023-07-29T12:23:59;1.70;;;0.93;;
33074;SDS011;19433;51.292;6.868;2023-07-29T12:26:28;1.70;;;0.93;;
33074;SDS011;19433;51.292;6.868;2023-07-29T12:28:54;1.03;;;1.00;;
33074;SDS011;19433;51.292;6.868;2023-07-29T12:31:21;1.73;;;1.20;;
33074;SDS011;19433;51.292;6.868;2023-07-29T12:33:46;1.60;;;1.13;;
33074;SDS011;19433;51.292;6.868;2023-07-29T12:36:12;1.20;;;1.10;;
33074;SDS011;19433;51.292;6.868;2023-07-29T12:38:37;1.77;;;1.27;;
33074;SDS011;19433;51.292;6.868;2023-07-29T12:41:02;1.17;;;1.17;;
33074;SDS011;19433;51.292;6.868;2023-07-29T12:43:27;0.70;;;0.70;;
33074;SDS011;19433;51.292;6.868;2023-07-29T12:45:53;1.00;;;1.00;;
33074;SDS011;19433;51.292;6.868;2023-07-29T12:48:19;1.00;;;1.00;;
33074;SDS011;19433;51.292;6.868;2023-07-29T12:50:44;1.87;;;1.00;;
33074;SDS011;19433;51.292;6.868;2023-07-29T12:53:10;1.10;;;1.10;;
33074;SDS011;19433;51.292;6.868;2023-07-29T12:55:36;2.00;;;1.20;;
33074;SDS011;19433;51.292;6.868;2023-07-29T12:58:01;1.40;;;1.30;;
33074;SDS011;19433;51.292;6.868;2023-07-29T13:00:27;1.37;;;1.10;;
33074;SDS011;19433;51.292;6.868;2023-07-29T13:02:53;1.10;;;1.10;;
33074;SDS011;19433;51.292;6.868;2023-07-29T13:05:18;1.07;;;1.07;;
33074;SDS011;19433;51.292;6.868;2023-07-29T13:07:43;1.17;;;1.07;;
33074;SDS011;19433;51.292;6.868;2023-07-29T13:10:09;2.10;;;1.10;;
33074;SDS011;19433;51.292;6.868;2023-07-29T13:12:35;1.00;;;0.90;;
33074;SDS011;19433;51.292;6.868;2023-07-29T13:15:01;1.40;;;1.30;;
33074;SDS011;19433;51.292;6.868;2023-07-29T13:17:27;1.20;;;1.10;;
33074;SDS011;19433;51.292;6.868;2023-07-29T13:19:52;1.40;;;1.30;;
33074;SDS011;19433;51.292;6.868;2023-07-29T13:22:17;1.17;;;1.10;;
33074;SDS011;19433;51.292;6.868;2023-07-29T13:24:44;1.20;;;1.10;;
33074;SDS011;19433;51.292;6.868;2023-07-29T13:27:09;1.30;;;1.30;;
33074;SDS011;19433;51.292;6.868;2023-07-29T13:29:34;1.00;;;1.00;;
33074;SDS011;19433;51.292;6.868;2023-07-29T13:32:00;1.70;;;1.57;;
33074;SDS011;19433;51.292;6.868;2023-07-29T13:34:25;1.20;;;1.10;;
33074;SDS011;19433;51.292;6.868;2023-07-29T13:36:50;1.87;;;1.20;;
33074;SDS011;19433;51.292;6.868;2023-07-29T13:39:16;0.83;;;0.83;;
33074;SDS011;19433;51.292;6.868;2023-07-29T13:41:41;1.63;;;1.00;;
33074;SDS011;19433;51.292;6.868;2023-07-29T13:44:06;1.87;;;1.40;;
33074;SDS011;19433;51.292;6.868;2023-07-29T13:46:32;1.27;;;1.17;;
33074;SDS011;19433;51.292;6.868;2023-07-29T13:48:57;1.20;;;1.10;;
33074;SDS011;19433;51.292;6.868;2023-07-29T13:51:22;1.37;;;1.27;;
33074;SDS011;19433;51.292;6.868;2023-07-29T13:53:48;1.57;;;1.47;;
33074;SDS011;19433;51.292;6.868;2023-07-29T13:56:13;2.13;;;1.53;;
33074;SDS011;19433;51.292;6.868;2023-07-29T13:58:39;1.13;;;1.03;;
33074;SDS011;19433;51.292;6.868;2023-07-29T14:01:05;2.20;;;1.63;;
33074;SDS011;19433;51.292;6.868;2023-07-29T14:03:31;1.33;;;1.23;;
33074;SDS011;19433;51.292;6.868;2023-07-29T14:05:56;1.33;;;1.23;;
33074;SDS011;19433;51.292;6.868;2023-07-29T14:08:21;1.37;;;1.27;;
33074;SDS011;19433;51.292;6.868;2023-07-29T14:10:48;1.87;;;1.63;;
33074;SDS011;19433;51.292;6.868;2023-07-29T14:13:14;2.13;;;1.43;;
33074;SDS011;19433;51.292;6.868;2023-07-29T14:15:39;1.80;;;1.70;;
33074;SDS011;19433;51.292;6.868;2023-07-29T14:18:04;1.83;;;1.67;;
33074;SDS011;19433;51.292;6.868;2023-07-29T14:20:29;1.80;;;1.70;;
33074;SDS011;19433;51.292;6.868;2023-07-29T14:22:55;1.33;;;1.33;;
33074;SDS011;19433;51.292;6.868;2023-07-29T14:25:20;1.23;;;1.23;;
33074;SDS011;19433;51.292;6.868;2023-07-29T14:27:45;1.33;;;1.23;;
33074;SDS011;19433;51.292;6.868;2023-07-29T14:30:10;2.10;;;1.10;;
33074;SDS011;19433;51.292;6.868;2023-07-29T14:32:36;1.10;;;1.10;;
33074;SDS011;19433;51.292;6.868;2023-07-29T14:35:02;1.13;;;1.13;;
33074;SDS011;19433;51.292;6.868;2023-07-29T14:37:31;1.43;;;1.37;;
33074;SDS011;19433;51.292;6.868;2023-07-29T14:39:57;2.30;;;1.23;;
33074;SDS011;19433;51.292;6.868;2023-07-29T14:42:23;1.40;;;1.30;;
33074;SDS011;19433;51.292;6.868;2023-07-29T14:44:48;1.80;;;1.70;;
33074;SDS011;19433;51.292;6.868;2023-07-29T14:47:13;1.73;;;1.50;;
33074;SDS011;19433;51.292;6.868;2023-07-29T14:49:39;1.40;;;1.30;;
33074;SDS011;19433;51.292;6.868;2023-07-29T14:52:05;1.63;;;1.53;;
33074;SDS011;19433;51.292;6.868;2023-07-29T14:54:31;1.50;;;1.40;;
33074;SDS011;19433;51.292;6.868;2023-07-29T14:56:56;1.40;;;1.30;;
33074;SDS011;19433;51.292;6.868;2023-07-29T14:59:21;1.53;;;1.43;;
33074;SDS011;19433;51.292;6.868;2023-07-29T15:01:47;1.47;;;1.37;;